sensor_id;sensor_type;location;lat;lon;timestamp;P1;durP1;ratioP1;P2;durP2;ratioP2
30533;SDS011;17318;52.390;9.754;2023-04-25T00:01:45;14.40;;;3.95;;
30533;SDS011;17318;52.390;9.754;2023-04-25T00:04:11;15.50;;;3.58;;
30533;SDS011;17318;52.390;9.754;2023-04-25T00:06:37;10.75;;;3.55;;
30533;SDS011;17318;52.390;9.754;2023-04-25T00:09:03;7.68;;;3.05;;
30533;SDS011;17318;52.390;9.754;2023-04-25T00:11:32;12.80;;;3.65;;
30533;SDS011;17318;52.390;9.754;2023-04-25T00:13:58;11.40;;;3.80;;
30533;SDS011;17318;52.390;9.754;2023-04-25T00:16:25;13.73;;;4.18;;
30533;SDS011;17318;52.390;9.754;2023-04-25T00:18:52;16.37;;;4.40;;
30533;SDS011;17318;52.390;9.754;2023-04-25T00:21:19;12.55;;;4.45;;
30533;SDS011;17318;52.390;9.754;2023-04-25T00:23:45;12.10;;;3.42;;
30533;SDS011;17318;52.390;9.754;2023-04-25T00:26:11;16.33;;;4.18;;
30533;SDS011;17318;52.390;9.754;2023-04-25T00:28:38;12.80;;;4.13;;
30533;SDS011;17318;52.390;9.754;2023-04-25T00:31:05;13.43;;;4.60;;
30533;SDS011;17318;52.390;9.754;2023-04-25T00:33:31;14.57;;;4.28;;
30533;SDS011;17318;52.390;9.754;2023-04-25T00:35:56;10.63;;;3.60;;
30533;SDS011;17318;52.390;9.754;2023-04-25T00:38:22;14.82;;;4.32;;
30533;SDS011;17318;52.390;9.754;2023-04-25T00:40:47;14.63;;;3.75;;
30533;SDS011;17318;52.390;9.754;2023-04-25T00:43:13;15.90;;;4.53;;
30533;SDS011;17318;52.390;9.754;2023-04-25T00:45:39;13.70;;;3.60;;
30533;SDS011;17318;52.390;9.754;2023-04-25T00:48:05;17.42;;;3.97;;
30533;SDS011;17318;52.390;9.754;2023-04-25T00:50:32;14.70;;;3.78;;
30533;SDS011;17318;52.390;9.754;2023-04-25T00:52:58;16.40;;;3.78;;
30533;SDS011;17318;52.390;9.754;2023-04-25T00:55:25;12.15;;;3.25;;
30533;SDS011;17318;52.390;9.754;2023-04-25T00:57:51;13.73;;;4.63;;
30533;SDS011;17318;52.390;9.754;2023-04-25T01:00:17;14.57;;;3.80;;
30533;SDS011;17318;52.390;9.754;2023-04-25T01:02:43;13.70;;;4.10;;
30533;SDS011;17318;52.390;9.754;2023-04-25T01:05:10;16.70;;;4.18;;
30533;SDS011;17318;52.390;9.754;2023-04-25T01:07:37;10.43;;;3.90;;
30533;SDS011;17318;52.390;9.754;2023-04-25T01:10:03;12.18;;;4.10;;
30533;SDS011;17318;52.390;9.754;2023-04-25T01:12:30;13.68;;;4.47;;
30533;SDS011;17318;52.390;9.754;2023-04-25T01:14:55;14.75;;;4.05;;
30533;SDS011;17318;52.390;9.754;2023-04-25T01:17:21;17.92;;;4.53;;
30533;SDS011;17318;52.390;9.754;2023-04-25T01:19:47;15.65;;;4.70;;
30533;SDS011;17318;52.390;9.754;2023-04-25T01:22:14;9.10;;;3.85;;
30533;SDS011;17318;52.390;9.754;2023-04-25T01:24:40;14.60;;;4.55;;
30533;SDS011;17318;52.390;9.754;2023-04-25T01:27:07;12.70;;;4.25;;
30533;SDS011;17318;52.390;9.754;2023-04-25T01:29:32;14.75;;;4.05;;
30533;SDS011;17318;52.390;9.754;2023-04-25T01:31:59;22.17;;;4.95;;
30533;SDS011;17318;52.390;9.754;2023-04-25T01:34:26;11.25;;;4.18;;
30533;SDS011;17318;52.390;9.754;2023-04-25T01:36:51;12.95;;;4.18;;
30533;SDS011;17318;52.390;9.754;2023-04-25T01:39:19;9.50;;;3.88;;
30533;SDS011;17318;52.390;9.754;2023-04-25T01:41:45;12.15;;;4.60;;
30533;SDS011;17318;52.390;9.754;2023-04-25T01:44:12;15.65;;;4.70;;
30533;SDS011;17318;52.390;9.754;2023-04-25T01:46:39;16.23;;;4.45;;
30533;SDS011;17318;52.390;9.754;2023-04-25T01:49:04;17.13;;;5.30;;
30533;SDS011;17318;52.390;9.754;2023-04-25T01:51:30;15.73;;;4.38;;
30533;SDS011;17318;52.390;9.754;2023-04-25T01:53:56;13.18;;;4.40;;
30533;SDS011;17318;52.390;9.754;2023-04-25T01:56:23;9.43;;;4.72;;
30533;SDS011;17318;52.390;9.754;2023-04-25T01:58:48;21.15;;;4.97;;
30533;SDS011;17318;52.390;9.754;2023-04-25T02:01:14;18.15;;;4.63;;
30533;SDS011;17318;52.390;9.754;2023-04-25T02:03:40;18.55;;;5.00;;
30533;SDS011;17318;52.390;9.754;2023-04-25T02:06:05;11.70;;;4.22;;
30533;SDS011;17318;52.390;9.754;2023-04-25T02:08:31;12.18;;;4.55;;
30533;SDS011;17318;52.390;9.754;2023-04-25T02:10:57;13.70;;;4.97;;
30533;SDS011;17318;52.390;9.754;2023-04-25T02:13:23;16.52;;;4.70;;
30533;SDS011;17318;52.390;9.754;2023-04-25T02:15:48;19.13;;;5.13;;
30533;SDS011;17318;52.390;9.754;2023-04-25T02:18:14;15.90;;;4.88;;
30533;SDS011;17318;52.390;9.754;2023-04-25T02:20:41;18.30;;;4.95;;
30533;SDS011;17318;52.390;9.754;2023-04-25T02:23:07;15.48;;;5.10;;
30533;SDS011;17318;52.390;9.754;2023-04-25T02:25:33;14.05;;;5.57;;
30533;SDS011;17318;52.390;9.754;2023-04-25T02:27:59;13.10;;;5.13;;
30533;SDS011;17318;52.390;9.754;2023-04-25T02:30:25;12.52;;;4.18;;
30533;SDS011;17318;52.390;9.754;2023-04-25T02:32:50;10.52;;;3.88;;
30533;SDS011;17318;52.390;9.754;2023-04-25T02:35:16;18.00;;;4.20;;
30533;SDS011;17318;52.390;9.754;2023-04-25T02:37:42;12.82;;;3.67;;
30533;SDS011;17318;52.390;9.754;2023-04-25T02:40:08;12.15;;;3.25;;
30533;SDS011;17318;52.390;9.754;2023-04-25T02:42:34;12.10;;;3.60;;
30533;SDS011;17318;52.390;9.754;2023-04-25T02:45:00;12.95;;;3.38;;
30533;SDS011;17318;52.390;9.754;2023-04-25T02:47:27;15.65;;;3.30;;
30533;SDS011;17318;52.390;9.754;2023-04-25T02:49:52;16.42;;;4.10;;
30533;SDS011;17318;52.390;9.754;2023-04-25T02:52:18;18.45;;;3.47;;
30533;SDS011;17318;52.390;9.754;2023-04-25T02:54:44;15.20;;;2.80;;
30533;SDS011;17318;52.390;9.754;2023-04-25T02:57:09;25.88;;;4.53;;
30533;SDS011;17318;52.390;9.754;2023-04-25T02:59:35;17.65;;;2.97;;
30533;SDS011;17318;52.390;9.754;2023-04-25T03:02:01;14.95;;;3.35;;
30533;SDS011;17318;52.390;9.754;2023-04-25T03:04:26;16.90;;;3.85;;
30533;SDS011;17318;52.390;9.754;2023-04-25T03:06:52;16.30;;;3.60;;
30533;SDS011;17318;52.390;9.754;2023-04-25T03:09:18;17.95;;;3.55;;
30533;SDS011;17318;52.390;9.754;2023-04-25T03:11:44;18.63;;;3.53;;
30533;SDS011;17318;52.390;9.754;2023-04-25T03:14:10;18.40;;;3.03;;
30533;SDS011;17318;52.390;9.754;2023-04-25T03:16:36;23.50;;;3.60;;
30533;SDS011;17318;52.390;9.754;2023-04-25T03:19:02;21.98;;;3.55;;
30533;SDS011;17318;52.390;9.754;2023-04-25T03:21:29;27.27;;;3.85;;
30533;SDS011;17318;52.390;9.754;2023-04-25T03:23:59;14.23;;;3.58;;
30533;SDS011;17318;52.390;9.754;2023-04-25T03:26:25;24.55;;;4.38;;
30533;SDS011;17318;52.390;9.754;2023-04-25T03:28:50;23.00;;;3.58;;
30533;SDS011;17318;52.390;9.754;2023-04-25T03:31:16;21.75;;;3.67;;
30533;SDS011;17318;52.390;9.754;2023-04-25T03:33:42;22.83;;;4.43;;
30533;SDS011;17318;52.390;9.754;2023-04-25T03:36:07;19.73;;;4.57;;
30533;SDS011;17318;52.390;9.754;2023-04-25T03:38:33;20.77;;;3.83;;
30533;SDS011;17318;52.390;9.754;2023-04-25T03:41:00;19.90;;;3.65;;
30533;SDS011;17318;52.390;9.754;2023-04-25T03:43:27;18.23;;;3.22;;
30533;SDS011;17318;52.390;9.754;2023-04-25T03:45:53;14.02;;;2.92;;
30533;SDS011;17318;52.390;9.754;2023-04-25T03:48:19;17.35;;;4.72;;
30533;SDS011;17318;52.390;9.754;2023-04-25T03:50:46;21.55;;;3.35;;
30533;SDS011;17318;52.390;9.754;2023-04-25T03:53:12;31.67;;;4.75;;
30533;SDS011;17318;52.390;9.754;2023-04-25T03:55:38;19.23;;;3.53;;
30533;SDS011;17318;52.390;9.754;2023-04-25T03:58:03;19.70;;;4.45;;
30533;SDS011;17318;52.390;9.754;2023-04-25T04:00:30;26.35;;;4.55;;
30533;SDS011;17318;52.390;9.754;2023-04-25T04:02:55;25.00;;;3.72;;
30533;SDS011;17318;52.390;9.754;2023-04-25T04:05:21;26.40;;;4.15;;
30533;SDS011;17318;52.390;9.754;2023-04-25T04:07:47;23.20;;;4.05;;
30533;SDS011;17318;52.390;9.754;2023-04-25T04:10:12;22.10;;;3.25;;
30533;SDS011;17318;52.390;9.754;2023-04-25T04:12:38;22.88;;;4.03;;
30533;SDS011;17318;52.390;9.754;2023-04-25T04:15:04;24.42;;;4.07;;
30533;SDS011;17318;52.390;9.754;2023-04-25T04:17:31;18.85;;;3.75;;
30533;SDS011;17318;52.390;9.754;2023-04-25T04:19:57;24.95;;;3.42;;
30533;SDS011;17318;52.390;9.754;2023-04-25T04:22:23;18.60;;;3.90;;
30533;SDS011;17318;52.390;9.754;2023-04-25T04:24:49;28.23;;;5.22;;
30533;SDS011;17318;52.390;9.754;2023-04-25T04:27:18;28.20;;;3.67;;
30533;SDS011;17318;52.390;9.754;2023-04-25T04:29:45;21.85;;;4.20;;
30533;SDS011;17318;52.390;9.754;2023-04-25T04:32:11;24.35;;;3.47;;
30533;SDS011;17318;52.390;9.754;2023-04-25T04:34:37;36.05;;;5.47;;
30533;SDS011;17318;52.390;9.754;2023-04-25T04:37:04;29.45;;;3.88;;
30533;SDS011;17318;52.390;9.754;2023-04-25T04:39:32;22.08;;;3.00;;
30533;SDS011;17318;52.390;9.754;2023-04-25T04:41:58;23.95;;;3.83;;
30533;SDS011;17318;52.390;9.754;2023-04-25T04:46:51;19.55;;;4.05;;
30533;SDS011;17318;52.390;9.754;2023-04-25T04:49:17;28.67;;;3.83;;
30533;SDS011;17318;52.390;9.754;2023-04-25T04:51:43;18.63;;;4.40;;
30533;SDS011;17318;52.390;9.754;2023-04-25T04:54:12;25.23;;;3.90;;
30533;SDS011;17318;52.390;9.754;2023-04-25T04:56:38;26.98;;;4.28;;
30533;SDS011;17318;52.390;9.754;2023-04-25T04:59:03;19.45;;;3.70;;
30533;SDS011;17318;52.390;9.754;2023-04-25T05:01:29;22.30;;;3.08;;
30533;SDS011;17318;52.390;9.754;2023-04-25T05:03:55;28.60;;;4.25;;
30533;SDS011;17318;52.390;9.754;2023-04-25T05:06:25;23.55;;;3.97;;
30533;SDS011;17318;52.390;9.754;2023-04-25T05:08:52;29.75;;;4.00;;
30533;SDS011;17318;52.390;9.754;2023-04-25T05:11:18;39.00;;;4.18;;
30533;SDS011;17318;52.390;9.754;2023-04-25T05:13:44;33.33;;;4.57;;
30533;SDS011;17318;52.390;9.754;2023-04-25T05:16:11;20.95;;;3.65;;
30533;SDS011;17318;52.390;9.754;2023-04-25T05:18:37;28.23;;;4.03;;
30533;SDS011;17318;52.390;9.754;2023-04-25T05:21:04;22.13;;;3.80;;
30533;SDS011;17318;52.390;9.754;2023-04-25T05:23:30;24.67;;;3.92;;
30533;SDS011;17318;52.390;9.754;2023-04-25T05:25:56;29.42;;;5.07;;
30533;SDS011;17318;52.390;9.754;2023-04-25T05:28:22;22.40;;;4.57;;
30533;SDS011;17318;52.390;9.754;2023-04-25T05:30:47;20.65;;;3.53;;
30533;SDS011;17318;52.390;9.754;2023-04-25T05:33:13;27.00;;;3.47;;
30533;SDS011;17318;52.390;9.754;2023-04-25T05:35:39;24.88;;;3.58;;
30533;SDS011;17318;52.390;9.754;2023-04-25T05:38:05;19.10;;;3.38;;
30533;SDS011;17318;52.390;9.754;2023-04-25T05:40:30;21.60;;;4.28;;
30533;SDS011;17318;52.390;9.754;2023-04-25T05:42:56;22.90;;;2.85;;
30533;SDS011;17318;52.390;9.754;2023-04-25T05:45:22;25.52;;;3.88;;
30533;SDS011;17318;52.390;9.754;2023-04-25T05:47:48;30.50;;;4.00;;
30533;SDS011;17318;52.390;9.754;2023-04-25T05:50:13;27.95;;;4.40;;
30533;SDS011;17318;52.390;9.754;2023-04-25T05:52:39;22.17;;;3.47;;
30533;SDS011;17318;52.390;9.754;2023-04-25T05:55:05;21.75;;;3.15;;
30533;SDS011;17318;52.390;9.754;2023-04-25T05:57:31;20.90;;;4.05;;
30533;SDS011;17318;52.390;9.754;2023-04-25T05:59:57;27.25;;;3.65;;
30533;SDS011;17318;52.390;9.754;2023-04-25T06:02:22;21.60;;;3.35;;
30533;SDS011;17318;52.390;9.754;2023-04-25T06:04:49;18.70;;;3.42;;
30533;SDS011;17318;52.390;9.754;2023-04-25T06:07:15;24.60;;;3.67;;
30533;SDS011;17318;52.390;9.754;2023-04-25T06:09:42;25.08;;;3.88;;
30533;SDS011;17318;52.390;9.754;2023-04-25T06:12:08;22.63;;;3.97;;
30533;SDS011;17318;52.390;9.754;2023-04-25T06:14:34;31.60;;;3.95;;
30533;SDS011;17318;52.390;9.754;2023-04-25T06:16:59;19.73;;;3.42;;
30533;SDS011;17318;52.390;9.754;2023-04-25T06:19:31;23.08;;;3.65;;
30533;SDS011;17318;52.390;9.754;2023-04-25T06:21:57;14.50;;;2.58;;
30533;SDS011;17318;52.390;9.754;2023-04-25T06:24:23;26.35;;;3.55;;
30533;SDS011;17318;52.390;9.754;2023-04-25T06:26:49;28.15;;;4.15;;
30533;SDS011;17318;52.390;9.754;2023-04-25T06:29:15;22.15;;;3.00;;
30533;SDS011;17318;52.390;9.754;2023-04-25T06:31:40;22.40;;;3.88;;
30533;SDS011;17318;52.390;9.754;2023-04-25T06:34:06;22.10;;;3.35;;
30533;SDS011;17318;52.390;9.754;2023-04-25T06:36:32;26.80;;;4.63;;
30533;SDS011;17318;52.390;9.754;2023-04-25T06:38:57;22.55;;;3.38;;
30533;SDS011;17318;52.390;9.754;2023-04-25T06:41:23;20.63;;;3.30;;
30533;SDS011;17318;52.390;9.754;2023-04-25T06:43:49;17.15;;;3.22;;
30533;SDS011;17318;52.390;9.754;2023-04-25T06:46:14;18.80;;;2.83;;
30533;SDS011;17318;52.390;9.754;2023-04-25T06:48:40;19.27;;;3.80;;
30533;SDS011;17318;52.390;9.754;2023-04-25T06:51:06;18.70;;;3.08;;
30533;SDS011;17318;52.390;9.754;2023-04-25T06:53:31;18.17;;;3.28;;
30533;SDS011;17318;52.390;9.754;2023-04-25T06:55:57;20.90;;;3.30;;
30533;SDS011;17318;52.390;9.754;2023-04-25T06:58:23;15.60;;;3.33;;
30533;SDS011;17318;52.390;9.754;2023-04-25T07:00:48;20.10;;;3.45;;
30533;SDS011;17318;52.390;9.754;2023-04-25T07:03:14;15.25;;;3.15;;
30533;SDS011;17318;52.390;9.754;2023-04-25T07:05:43;27.42;;;4.15;;
30533;SDS011;17318;52.390;9.754;2023-04-25T07:08:10;16.10;;;3.05;;
30533;SDS011;17318;52.390;9.754;2023-04-25T07:10:36;19.17;;;3.53;;
30533;SDS011;17318;52.390;9.754;2023-04-25T07:13:02;24.10;;;3.83;;
30533;SDS011;17318;52.390;9.754;2023-04-25T07:15:28;12.23;;;2.72;;
30533;SDS011;17318;52.390;9.754;2023-04-25T07:17:53;23.25;;;3.03;;
30533;SDS011;17318;52.390;9.754;2023-04-25T07:20:19;19.33;;;2.92;;
30533;SDS011;17318;52.390;9.754;2023-04-25T07:22:44;22.45;;;3.30;;
30533;SDS011;17318;52.390;9.754;2023-04-25T07:25:10;21.08;;;2.58;;
30533;SDS011;17318;52.390;9.754;2023-04-25T07:27:36;19.92;;;3.08;;
30533;SDS011;17318;52.390;9.754;2023-04-25T07:30:02;17.67;;;3.40;;
30533;SDS011;17318;52.390;9.754;2023-04-25T07:32:29;14.50;;;2.55;;
30533;SDS011;17318;52.390;9.754;2023-04-25T07:34:55;12.90;;;2.40;;
30533;SDS011;17318;52.390;9.754;2023-04-25T07:37:20;18.33;;;2.63;;
30533;SDS011;17318;52.390;9.754;2023-04-25T07:39:46;15.95;;;2.90;;
30533;SDS011;17318;52.390;9.754;2023-04-25T07:42:12;16.00;;;2.53;;
30533;SDS011;17318;52.390;9.754;2023-04-25T07:44:38;13.65;;;2.90;;
30533;SDS011;17318;52.390;9.754;2023-04-25T07:47:08;13.40;;;2.58;;
30533;SDS011;17318;52.390;9.754;2023-04-25T07:49:35;14.27;;;3.28;;
30533;SDS011;17318;52.390;9.754;2023-04-25T07:52:02;16.27;;;2.85;;
30533;SDS011;17318;52.390;9.754;2023-04-25T07:54:29;12.43;;;2.83;;
30533;SDS011;17318;52.390;9.754;2023-04-25T07:56:55;22.98;;;2.80;;
30533;SDS011;17318;52.390;9.754;2023-04-25T07:59:21;9.07;;;2.13;;
30533;SDS011;17318;52.390;9.754;2023-04-25T08:01:47;14.88;;;2.30;;
30533;SDS011;17318;52.390;9.754;2023-04-25T08:04:12;16.13;;;4.55;;
30533;SDS011;17318;52.390;9.754;2023-04-25T08:06:38;8.85;;;1.95;;
30533;SDS011;17318;52.390;9.754;2023-04-25T08:09:05;11.55;;;2.50;;
30533;SDS011;17318;52.390;9.754;2023-04-25T08:11:31;15.18;;;2.65;;
30533;SDS011;17318;52.390;9.754;2023-04-25T08:13:57;18.15;;;3.55;;
30533;SDS011;17318;52.390;9.754;2023-04-25T08:16:22;9.63;;;1.83;;
30533;SDS011;17318;52.390;9.754;2023-04-25T08:18:49;7.03;;;1.70;;
30533;SDS011;17318;52.390;9.754;2023-04-25T08:21:15;10.38;;;2.00;;
30533;SDS011;17318;52.390;9.754;2023-04-25T08:23:41;14.98;;;2.05;;
30533;SDS011;17318;52.390;9.754;2023-04-25T08:26:07;5.88;;;1.55;;
30533;SDS011;17318;52.390;9.754;2023-04-25T08:28:32;11.00;;;2.08;;
30533;SDS011;17318;52.390;9.754;2023-04-25T08:30:58;10.60;;;1.40;;
30533;SDS011;17318;52.390;9.754;2023-04-25T08:33:24;9.35;;;2.35;;
30533;SDS011;17318;52.390;9.754;2023-04-25T08:35:50;9.05;;;2.00;;
30533;SDS011;17318;52.390;9.754;2023-04-25T08:38:17;9.75;;;2.20;;
30533;SDS011;17318;52.390;9.754;2023-04-25T08:40:43;12.95;;;2.28;;
30533;SDS011;17318;52.390;9.754;2023-04-25T08:43:09;13.60;;;2.25;;
30533;SDS011;17318;52.390;9.754;2023-04-25T08:45:40;10.63;;;2.08;;
30533;SDS011;17318;52.390;9.754;2023-04-25T08:48:13;8.25;;;1.85;;
30533;SDS011;17318;52.390;9.754;2023-04-25T08:50:51;9.90;;;2.15;;
30533;SDS011;17318;52.390;9.754;2023-04-25T08:53:28;11.97;;;2.97;;
30533;SDS011;17318;52.390;9.754;2023-04-25T08:55:55;14.70;;;2.35;;
30533;SDS011;17318;52.390;9.754;2023-04-25T08:58:22;6.15;;;1.48;;
30533;SDS011;17318;52.390;9.754;2023-04-25T09:00:49;11.15;;;2.30;;
30533;SDS011;17318;52.390;9.754;2023-04-25T09:03:16;12.75;;;1.77;;
30533;SDS011;17318;52.390;9.754;2023-04-25T09:05:42;10.73;;;1.75;;
30533;SDS011;17318;52.390;9.754;2023-04-25T09:08:08;5.82;;;1.52;;
30533;SDS011;17318;52.390;9.754;2023-04-25T09:10:35;7.05;;;1.85;;
30533;SDS011;17318;52.390;9.754;2023-04-25T09:13:11;9.60;;;1.75;;
30533;SDS011;17318;52.390;9.754;2023-04-25T09:18:29;8.10;;;2.92;;
30533;SDS011;17318;52.390;9.754;2023-04-25T09:21:06;10.52;;;2.45;;
30533;SDS011;17318;52.390;9.754;2023-04-25T09:23:46;7.53;;;1.45;;
30533;SDS011;17318;52.390;9.754;2023-04-25T09:26:15;4.65;;;1.30;;
30533;SDS011;17318;52.390;9.754;2023-04-25T09:28:43;6.10;;;1.27;;
30533;SDS011;17318;52.390;9.754;2023-04-25T09:31:11;10.20;;;1.52;;
30533;SDS011;17318;52.390;9.754;2023-04-25T09:33:45;4.97;;;1.10;;
30533;SDS011;17318;52.390;9.754;2023-04-25T09:36:12;6.18;;;1.75;;
30533;SDS011;17318;52.390;9.754;2023-04-25T09:38:42;6.45;;;1.38;;
30533;SDS011;17318;52.390;9.754;2023-04-25T09:41:09;6.22;;;1.00;;
30533;SDS011;17318;52.390;9.754;2023-04-25T09:43:35;3.45;;;1.10;;
30533;SDS011;17318;52.390;9.754;2023-04-25T09:46:01;10.43;;;1.40;;
30533;SDS011;17318;52.390;9.754;2023-04-25T09:48:28;5.57;;;1.08;;
30533;SDS011;17318;52.390;9.754;2023-04-25T09:51:10;9.93;;;1.30;;
30533;SDS011;17318;52.390;9.754;2023-04-25T09:53:41;8.80;;;1.55;;
30533;SDS011;17318;52.390;9.754;2023-04-25T09:56:09;3.88;;;1.08;;
30533;SDS011;17318;52.390;9.754;2023-04-25T09:58:37;7.20;;;1.88;;
30533;SDS011;17318;52.390;9.754;2023-04-25T10:01:07;6.57;;;1.52;;
30533;SDS011;17318;52.390;9.754;2023-04-25T10:03:35;5.45;;;1.38;;
